Terminal Aerodrome Forecast
Issued by NWS

Home | Current Version | Previous Version | Text Only | Print | Product List | Glossary On
Versions: 1 2 3 4 5 6 7 8 9 10 11 12 13 14 15 16 17 18 19 20 21 22 23 24 25 26 27 28 29 30 31 32
387
FTUS44 KBMX 241120
TAFMGM
TAF
KMGM 241120Z 2412/2512 28011KT P6SM SCT015
      TEMPO 2412/2413 OVC015
     FM241500 28004KT P6SM SKC
     FM250000 19003KT P6SM SKC=

USA.gov is the U.S. government's official web portal to all federal, state and local government web resources and services.